Abisko, Sweden

4:23 AM CEST on August 31, 2015 (GMT +0200)
Abisko Utsikten | | Change Station
CLOSE
Current Station
Personal Weather Station
Location: Abisko, KIRUNA
Elevation: 1200 ft
Nearby Weather Stations

Elev 1200 ft 68.35 °N, 18.83 °E | Updated 1 minute ago

Mostly Cloudy
Mostly Cloudy
47.9 °F
Feels Like 48 °F
N
2.0
Wind Variable Wind from North
Gusts 4.0 mph

Today
High -- | Low -- °F
--% Chance of Precip.
Yesterday
High -- | Low -- °F
Precip. -- in
5:03 AM 8:24 PM
Full, 97% visible
Pressure 29.74 in
Visibility 6.2 miles
Clouds Few 4000 ft
Mostly Cloudy 6000 ft
Windchill 48 °F
Dew Point 42 °F
Humidity 81%
Rainfall 0.00 in
Snow Depth Not available.
UV 0 out of 12
Pollen Not available.
Air Quality Not available.
Flu Activity Not available.
METAR ENDU 310150Z 23008KT 200V260 9999 FEW040 BKN060 12/08 Q1007
Pressure 29.74 in
Visibility 6.2 miles
Clouds Few 4000 ft
Mostly Cloudy 6000 ft
Windchill 48 °F
Dew Point 42 °F
Humidity 81%
Rainfall 0.00 in
Snow Depth Not available.
UV 0 out of 12
Pollen Not available.
Air Quality Not available.
Flu Activity Not available.
METAR ENDU 310150Z 23008KT 200V260 9999 FEW040 BKN060 12/08 Q1007

10-Day Weather Forecast

×

Almanac

Astronomy

Aug. 31, 2015 Rise Set
Actual Time
Civil Twilight
Nautical Twilight
Astronomical Twilight
Moon
Length of Visible Light
Length of Day
Tomorrow will be .
, % of the Moon is Illuminated

Today's Extremes

Country Highs Country Lows

Community

WunderPhotos

Upload Photos

1,851,157 photos uploaded!

WunderBlogs® & News

Nearby

Air Quality

  Air Quality AQ Index Pollutant
Not available.

Snow Depth

Station Depth Elevation

Earthquake Activity

City Distance Mag. Time & Date
Minimum magnitude displayed is 2.5.

Coastal Water Temperatures

Place Temperature

Stations

Nearby Weather Stations

Station Location Temp. Windchill Dew Point Humidity Wind Precip. Elev Updated Type